Flight Track Log - Related Links

Times and Time Zones

All times are in EDT time to prevent confusion due to time zone crossing. See the N510PT flight status page for this flight to view local times or setup timezone preferences in your user account.

Time Position Orientation Groundspeed Altitude Reporting Facility
EDT Latitude Longitude Course Direction KTS MPH feet Rate Location/Type
08:20AM 40.4983 -85.6744 35° Northeast 154 177 1,300  Level Chicago Center
08:21AM 40.5206 -85.6542 358° North 174 200 2,800 3,091 Climbing Chicago Center
08:22AM 40.5769 -85.6564 70° East 196 226 6,400 2,962 Climbing Chicago Center
08:23AM 40.6075 -85.5472 89° East 174 200 10,600 2,400 Climbing Indianapolis Center
08:24AM 40.6089 -85.4489 89° East 247 284 12,600 2,000 Climbing Indianapolis Center
08:25AM 40.6106 -85.3506 89° East 273 314 14,600 1,200 Climbing Indianapolis Center
08:26AM 40.6122 -85.2383 90° East 282 325 15,000 200 Climbing Indianapolis Center
08:27AM 40.6117 -85.1344 88° East 300 345 15,000  Level Indianapolis Center
08:28AM 40.6150 -85.0225 89° East 310 357 15,000 -50 Level Indianapolis Center
08:29AM 40.6167 -84.8914 91° East 310 357 14,900 -50 Descending Indianapolis Center
08:30AM 40.6158 -84.7764 89° East 310 357 14,900  Level Indianapolis Center
08:31AM 40.6169 -84.6617 89° East 310 357 14,900  Level Indianapolis Center
08:32AM 40.6178 -84.5467 89° East 310 357 14,900  Level Indianapolis Center
08:33AM 40.6189 -84.4319 90° East 310 357 14,900  Level Indianapolis Center
08:34AM 40.6194 -84.3253 91° East 310 357 14,900  Level Indianapolis Center
08:35AM 40.6181 -84.2133 90° East 310 357 14,900 -50 Level Indianapolis Center
08:36AM 40.6186 -84.0983 90° East 310 357 14,800 -550 Descending Indianapolis Center
08:37AM 40.6192 -83.9864 90° East 310 357 13,800 -1,050 Descending Indianapolis Center
08:38AM 40.6194 -83.8742 91° East 310 357 12,700 -1,050 Descending Indianapolis Center
08:39AM 40.6178 -83.7539 91° East 305 351 11,700 -1,000 Descending Indianapolis Center

Login

Don't have an account? Register now (free) for customized features, flight alerts, and more!